createdAt,value
2024-01-10T00:00:43.324Z,-3.01
2024-01-10T00:03:09.906Z,-2.93
2024-01-10T00:05:36.563Z,-3.00
2024-01-10T00:08:03.530Z,-2.98
2024-01-10T00:10:30.294Z,-2.89
2024-01-10T00:12:57.080Z,-2.89
2024-01-10T00:15:23.692Z,-2.93
2024-01-10T00:17:50.372Z,-3.05
2024-01-10T00:20:17.198Z,-3.07
2024-01-10T00:22:43.950Z,-3.12
2024-01-10T00:25:10.577Z,-3.17
2024-01-10T00:27:37.338Z,-3.02
2024-01-10T00:30:05.114Z,-2.99
2024-01-10T00:32:32.222Z,-3.18
2024-01-10T00:34:58.988Z,-3.11
2024-01-10T00:37:25.803Z,-3.24
2024-01-10T00:39:52.474Z,-3.25
2024-01-10T00:42:19.396Z,-3.25
2024-01-10T00:44:46.014Z,-3.23
2024-01-10T00:47:13.163Z,-3.24
2024-01-10T00:49:39.948Z,-3.12
2024-01-10T00:52:06.685Z,-3.21
2024-01-10T00:54:33.340Z,-3.79
2024-01-10T00:57:02.667Z,-3.22
2024-01-10T00:59:29.681Z,-3.31
2024-01-10T01:01:56.451Z,-3.19
2024-01-10T01:04:23.189Z,-3.37
2024-01-10T01:06:49.910Z,-3.66
2024-01-10T01:09:16.836Z,-3.32
2024-01-10T01:11:43.392Z,-3.29
2024-01-10T01:14:10.168Z,-3.40
2024-01-10T01:16:36.790Z,-3.14
2024-01-10T01:19:03.512Z,-3.20
2024-01-10T01:21:30.169Z,-3.18
2024-01-10T01:23:56.796Z,-3.16
2024-01-10T01:26:23.491Z,-3.12
2024-01-10T01:28:50.121Z,-3.00
2024-01-10T01:31:16.899Z,-2.90
2024-01-10T01:33:43.600Z,-2.88
2024-01-10T01:36:10.371Z,-2.73
2024-01-10T01:38:37.338Z,-2.93
2024-01-10T01:41:04.486Z,-3.12
2024-01-10T01:43:31.290Z,-2.80
2024-01-10T01:45:57.995Z,-3.07
2024-01-10T01:48:26.446Z,-2.88
2024-01-10T01:50:59.917Z,-2.99
2024-01-10T01:53:29.691Z,-2.70
2024-01-10T01:55:56.659Z,-2.70
2024-01-10T01:58:23.819Z,-2.75
2024-01-10T02:00:51.400Z,-3.03
2024-01-10T02:03:18.332Z,-2.72
2024-01-10T02:05:45.115Z,-2.56
2024-01-10T02:08:11.850Z,-2.68
2024-01-10T02:10:38.578Z,-2.62
2024-01-10T02:13:06.634Z,-2.58
2024-01-10T02:15:33.498Z,-2.84
2024-01-10T02:18:00.325Z,-2.82
2024-01-10T02:20:27.235Z,-2.82
2024-01-10T02:22:54.123Z,-2.77
2024-01-10T02:25:20.661Z,-2.72
2024-01-10T02:27:47.310Z,-2.88
2024-01-10T02:30:16.760Z,-2.80
2024-01-10T02:32:44.294Z,-2.76
2024-01-10T02:35:11.137Z,-3.35
2024-01-10T02:37:37.821Z,-2.54
2024-01-10T02:40:05.024Z,-2.93
2024-01-10T02:42:33.210Z,-3.57
2024-01-10T02:44:59.879Z,-3.27
2024-01-10T02:47:30.423Z,-2.48
2024-01-10T02:49:57.306Z,-2.83
2024-01-10T02:52:23.949Z,-2.42
2024-01-10T02:54:50.701Z,-2.33
2024-01-10T02:57:17.341Z,-2.52
2024-01-10T02:59:43.976Z,-2.51
2024-01-10T03:02:10.718Z,-2.45
2024-01-10T03:04:38.718Z,-2.88
2024-01-10T03:07:05.540Z,-2.93
2024-01-10T03:09:32.257Z,-2.83
2024-01-10T03:11:59.140Z,-2.40
2024-01-10T03:14:25.926Z,-2.12
2024-01-10T03:16:52.741Z,-2.00
2024-01-10T03:19:19.545Z,-2.12
2024-01-10T03:21:46.184Z,-2.47
2024-01-10T03:24:13.006Z,-2.58
2024-01-10T03:26:39.842Z,-2.30
2024-01-10T03:29:06.577Z,-2.02
2024-01-10T03:31:33.445Z,-2.66
2024-01-10T03:34:00.406Z,-2.50
2024-01-10T03:36:27.605Z,-2.77
2024-01-10T03:38:54.411Z,-2.75
2024-01-10T03:41:21.877Z,-2.11
2024-01-10T03:43:48.959Z,-2.40
2024-01-10T03:46:16.796Z,-2.74
2024-01-10T03:48:50.757Z,-2.05
2024-01-10T03:51:18.921Z,-2.85
2024-01-10T03:53:50.496Z,-2.50
2024-01-10T03:56:17.740Z,-2.65
2024-01-10T03:58:44.701Z,-2.04
2024-01-10T04:01:11.638Z,-2.11
2024-01-10T04:03:39.321Z,-2.60
2024-01-10T04:06:06.905Z,-2.77
2024-01-10T04:08:33.820Z,-2.66
2024-01-10T04:11:01.128Z,-2.06
2024-01-10T04:13:28.002Z,-2.93
2024-01-10T04:15:54.639Z,-2.03
2024-01-10T04:18:21.774Z,-2.10
2024-01-10T04:20:49.429Z,-2.13
2024-01-10T04:23:16.465Z,-2.49
2024-01-10T04:25:43.386Z,-1.95
2024-01-10T04:28:10.094Z,-1.87
2024-01-10T04:30:36.867Z,-2.01
2024-01-10T04:33:03.704Z,-2.76
2024-01-10T04:35:30.498Z,-2.80
2024-01-10T04:37:57.245Z,-2.37
2024-01-10T04:40:23.808Z,-2.59
2024-01-10T04:42:50.678Z,-2.03
2024-01-10T04:45:17.280Z,-2.17
2024-01-10T04:47:46.132Z,-2.44
2024-01-10T04:50:14.471Z,-2.22
2024-01-10T04:52:41.788Z,-2.88
2024-01-10T04:55:09.397Z,-2.13
2024-01-10T04:57:36.439Z,-2.72
2024-01-10T05:00:03.634Z,-2.12
2024-01-10T05:02:30.470Z,-2.19
2024-01-10T05:04:57.207Z,-2.05
2024-01-10T05:07:24.004Z,-2.06
2024-01-10T05:09:50.707Z,-2.53
2024-01-10T05:12:17.560Z,-2.63
2024-01-10T05:14:44.600Z,-2.05
2024-01-10T05:17:11.279Z,-2.55
2024-01-10T05:19:38.185Z,-2.81
2024-01-10T05:22:05.880Z,-2.20
2024-01-10T05:24:32.683Z,-2.14
2024-01-10T05:26:59.368Z,-2.90
2024-01-10T05:29:26.393Z,-2.73
2024-01-10T05:31:53.226Z,-2.23
2024-01-10T05:34:20.228Z,-3.00
2024-01-10T05:36:46.959Z,-2.17
2024-01-10T05:39:17.098Z,-2.55
2024-01-10T05:41:46.684Z,-2.54
2024-01-10T05:44:14.414Z,-2.40
2024-01-10T05:46:41.888Z,-3.16
2024-01-10T05:49:09.913Z,-3.04
2024-01-10T05:51:36.870Z,-2.71
2024-01-10T05:54:03.642Z,-2.80
2024-01-10T05:56:30.335Z,-2.09
2024-01-10T05:58:57.178Z,-2.07
2024-01-10T06:01:23.881Z,-2.73
2024-01-10T06:03:50.740Z,-2.45
2024-01-10T06:06:17.342Z,-2.02
2024-01-10T06:08:44.086Z,-2.26
2024-01-10T06:11:12.082Z,-2.87
2024-01-10T06:13:49.103Z,-2.45
2024-01-10T06:16:20.844Z,-2.74
2024-01-10T06:18:47.722Z,-2.17
2024-01-10T06:21:15.105Z,-2.22
2024-01-10T06:23:42.040Z,-2.76
2024-01-10T06:26:08.794Z,-2.61
2024-01-10T06:28:35.426Z,-2.05
2024-01-10T06:31:02.263Z,-2.91
2024-01-10T06:33:28.945Z,-2.34
2024-01-10T06:35:56.237Z,-2.33
2024-01-10T06:38:23.877Z,-2.77
2024-01-10T06:40:51.999Z,-2.52
2024-01-10T06:43:19.087Z,-1.94
2024-01-10T06:45:46.068Z,-1.71
2024-01-10T06:48:12.984Z,-2.28
2024-01-10T06:50:39.898Z,-1.75
2024-01-10T06:53:06.733Z,-2.55
2024-01-10T06:55:33.520Z,-1.53
2024-01-10T06:58:00.300Z,-1.62
2024-01-10T07:00:27.535Z,-2.28
2024-01-10T07:02:54.459Z,-2.08
2024-01-10T07:05:21.474Z,-1.74
2024-01-10T07:07:48.495Z,-1.78
2024-01-10T07:10:15.100Z,-1.38
2024-01-10T07:12:42.607Z,-1.93
2024-01-10T07:15:09.896Z,-1.83
2024-01-10T07:17:36.727Z,-1.50
2024-01-10T07:20:04.544Z,-1.52
2024-01-10T07:22:32.117Z,-2.04
2024-01-10T07:24:59.101Z,-2.55
2024-01-10T07:27:25.790Z,-2.24
2024-01-10T07:29:53.816Z,-2.30
2024-01-10T07:32:21.242Z,-2.21
2024-01-10T07:34:48.295Z,-1.57
2024-01-10T07:37:17.861Z,-1.54
2024-01-10T07:39:44.791Z,-2.16
2024-01-10T07:42:11.518Z,-1.63
2024-01-10T07:44:38.413Z,-1.69
2024-01-10T07:47:05.228Z,-1.72
2024-01-10T07:49:33.316Z,-1.40
2024-01-10T07:52:00.053Z,-1.82
2024-01-10T07:54:26.818Z,-2.29
2024-01-10T07:56:54.670Z,-1.62
2024-01-10T07:59:21.610Z,-2.07
2024-01-10T08:01:57.727Z,-1.59
2024-01-10T08:04:24.437Z,-2.12
2024-01-10T08:06:51.456Z,-2.18
2024-01-10T08:09:20.183Z,-1.35
2024-01-10T08:11:47.224Z,-1.86
2024-01-10T08:14:14.071Z,-1.70
2024-01-10T08:16:40.930Z,-1.48
2024-01-10T08:19:08.226Z,-1.26
2024-01-10T08:21:35.621Z,-1.13
2024-01-10T08:24:03.693Z,-1.68
2024-01-10T08:26:31.803Z,-1.70
2024-01-10T08:28:59.028Z,-1.05
2024-01-10T08:31:28.221Z,-1.50
2024-01-10T08:33:55.296Z,-1.00
2024-01-10T08:36:22.400Z,-0.67
2024-01-10T08:38:49.984Z,-1.24
2024-01-10T08:41:16.866Z,-1.28
2024-01-10T08:43:43.559Z,-1.16
2024-01-10T08:46:10.620Z,-0.66
2024-01-10T08:48:38.072Z,-1.08
2024-01-10T08:51:05.086Z,-0.44
2024-01-10T08:53:31.867Z,-0.47
2024-01-10T08:55:58.545Z,-0.92
2024-01-10T08:58:25.179Z,-0.81
2024-01-10T09:00:51.966Z,-0.82
2024-01-10T09:03:18.653Z,-0.71
2024-01-10T09:05:53.517Z,-0.07
2024-01-10T09:08:29.371Z,-0.08
2024-01-10T09:10:56.301Z,-0.65
2024-01-10T09:13:23.004Z,-0.63
2024-01-10T09:15:49.692Z,-0.58
2024-01-10T09:18:16.422Z,-0.47
2024-01-10T09:20:43.327Z,-0.64
2024-01-10T09:23:11.633Z,-0.36
2024-01-10T09:25:38.347Z,-0.15
2024-01-10T09:28:08.691Z,-0.04
2024-01-10T09:30:36.064Z,0.48
2024-01-10T09:33:03.780Z,0.34
2024-01-10T09:35:30.633Z,0.29
2024-01-10T09:37:57.364Z,0.26
2024-01-10T09:40:27.326Z,-0.28
2024-01-10T09:42:55.680Z,-0.09
2024-01-10T09:45:24.164Z,0.03
2024-01-10T09:47:56.768Z,0.49
2024-01-10T09:50:26.678Z,0.06
2024-01-10T09:53:00.042Z,-0.09
2024-01-10T09:55:32.122Z,0.49
2024-01-10T09:57:58.875Z,-0.18
2024-01-10T10:00:26.798Z,-0.20
2024-01-10T10:02:57.202Z,0.58
2024-01-10T10:05:24.711Z,0.57
2024-01-10T10:07:54.443Z,-0.06
2024-01-10T10:10:21.598Z,-0.18
2024-01-10T10:12:54.938Z,0.32
2024-01-10T10:15:29.421Z,-0.40
2024-01-10T10:17:56.779Z,0.14
2024-01-10T10:20:39.722Z,0.59
2024-01-10T10:23:08.483Z,0.89
2024-01-10T10:25:39.146Z,0.57
2024-01-10T10:28:06.694Z,1.09
2024-01-10T10:30:35.127Z,1.50
2024-01-10T10:33:09.588Z,1.01
2024-01-10T10:35:39.763Z,0.93
2024-01-10T10:38:11.514Z,1.16
2024-01-10T10:40:38.534Z,1.74
2024-01-10T10:43:06.140Z,1.24
2024-01-10T10:45:34.628Z,1.32
2024-01-10T10:48:03.227Z,1.56
2024-01-10T10:50:34.778Z,1.60
2024-01-10T10:53:04.652Z,1.84
2024-01-10T10:55:36.020Z,1.92
2024-01-10T10:58:11.674Z,1.63
2024-01-10T11:00:43.832Z,1.23
2024-01-10T11:03:14.968Z,0.44
2024-01-10T11:05:43.166Z,0.33
2024-01-10T11:08:17.818Z,0.46
2024-01-10T11:10:45.989Z,-0.02
2024-01-10T11:13:31.454Z,-0.01
2024-01-10T11:16:01.562Z,0.52
2024-01-10T11:18:34.394Z,0.44
2024-01-10T11:21:17.802Z,-0.10
2024-01-10T11:23:53.941Z,0.07
2024-01-10T11:26:23.271Z,0.08
2024-01-10T11:28:51.219Z,0.41
2024-01-10T11:31:29.503Z,0.04
2024-01-10T11:33:58.118Z,-0.24
2024-01-10T11:36:28.224Z,0.00
2024-01-10T11:39:04.569Z,0.21
2024-01-10T11:41:33.677Z,-0.42
2024-01-10T11:44:09.805Z,0.37
2024-01-10T11:46:57.811Z,0.26
2024-01-10T11:49:26.811Z,-0.10
2024-01-10T11:51:57.295Z,-0.06
2024-01-10T11:54:48.779Z,0.44
2024-01-10T11:57:18.907Z,0.51
2024-01-10T11:59:46.779Z,0.68
2024-01-10T12:04:47.002Z,0.49
2024-01-10T12:05:07.321Z,0.05
2024-01-10T12:07:34.118Z,0.33
2024-01-10T12:10:00.845Z,0.42
2024-01-10T12:12:27.808Z,-0.10
2024-01-10T12:14:54.576Z,0.61
2024-01-10T12:17:21.374Z,0.05
2024-01-10T12:19:49.499Z,0.53
2024-01-10T12:22:19.919Z,0.01
2024-01-10T12:24:50.986Z,-0.55
2024-01-10T12:27:22.655Z,0.31
2024-01-10T12:29:52.361Z,-0.01
2024-01-10T12:32:25.349Z,0.43
2024-01-10T12:35:01.698Z,-0.14
2024-01-10T12:37:28.534Z,-0.45
2024-01-10T12:39:55.352Z,0.44
2024-01-10T12:42:22.312Z,-0.27
2024-01-10T12:44:48.949Z,0.53
2024-01-10T12:47:22.813Z,0.51
2024-01-10T12:49:50.226Z,-0.06
2024-01-10T12:52:19.508Z,-0.05
2024-01-10T12:54:48.248Z,-0.38
2024-01-10T12:57:14.930Z,-0.52
2024-01-10T12:59:41.636Z,0.27
2024-01-10T13:02:08.387Z,-0.07
2024-01-10T13:04:35.238Z,-0.34
2024-01-10T13:07:03.078Z,0.04
2024-01-10T13:09:29.719Z,-0.13
2024-01-10T13:11:56.413Z,0.40
2024-01-10T13:14:23.250Z,0.11
2024-01-10T13:16:57.011Z,0.10
2024-01-10T13:19:27.476Z,-0.45
2024-01-10T13:21:54.601Z,0.08
2024-01-10T13:24:21.432Z,-0.47
2024-01-10T13:26:49.657Z,0.43
2024-01-10T13:29:16.971Z,0.09
2024-01-10T13:31:44.143Z,0.30
2024-01-10T13:34:12.277Z,0.35
2024-01-10T13:36:39.330Z,0.04
2024-01-10T13:39:06.038Z,-0.46
2024-01-10T13:41:32.946Z,-0.38
2024-01-10T13:43:59.734Z,0.00
2024-01-10T13:46:26.801Z,-0.04
2024-01-10T13:48:53.433Z,0.42
2024-01-10T13:51:20.205Z,-0.01
2024-01-10T13:53:47.122Z,-0.02
2024-01-10T13:56:14.020Z,-0.25
2024-01-10T13:58:40.925Z,0.22
2024-01-10T14:01:07.726Z,-0.49
2024-01-10T14:03:34.548Z,-0.10
2024-01-10T14:06:01.986Z,0.00
2024-01-10T14:08:28.840Z,-0.42
2024-01-10T14:10:55.839Z,-0.57
2024-01-10T14:13:24.328Z,-0.67
2024-01-10T14:15:51.089Z,-0.67
2024-01-10T14:18:17.961Z,-0.97
2024-01-10T14:20:44.811Z,-0.73
2024-01-10T14:23:11.687Z,-1.08
2024-01-10T14:25:38.334Z,-0.63
2024-01-10T14:28:05.103Z,-0.53
2024-01-10T14:30:33.739Z,-0.57
2024-01-10T14:33:01.007Z,-1.45
2024-01-10T14:35:28.238Z,-0.56
2024-01-10T14:37:54.978Z,-1.14
2024-01-10T14:40:24.711Z,-0.94
2024-01-10T14:42:51.749Z,-1.00
2024-01-10T14:45:18.395Z,-0.49
2024-01-10T14:47:45.077Z,-1.13
2024-01-10T14:50:12.875Z,-0.54
2024-01-10T14:52:39.618Z,-1.13
2024-01-10T14:55:06.607Z,-0.66
2024-01-10T14:57:34.297Z,-0.66
2024-01-10T15:00:01.308Z,-1.20
2024-01-10T15:02:28.222Z,-0.89
2024-01-10T15:04:55.135Z,-1.47
2024-01-10T15:07:22.141Z,-0.94
2024-01-10T15:09:48.707Z,-0.96
2024-01-10T15:12:15.521Z,-1.51
2024-01-10T15:14:42.928Z,-1.78
2024-01-10T15:17:14.039Z,-1.19
2024-01-10T15:19:41.913Z,-1.67
2024-01-10T15:22:09.615Z,-1.59
2024-01-10T15:24:36.513Z,-1.74
2024-01-10T15:27:10.121Z,-1.63
2024-01-10T15:29:41.115Z,-1.11
2024-01-10T15:32:08.629Z,-1.94
2024-01-10T15:34:35.815Z,-1.66
2024-01-10T15:37:02.666Z,-1.64
2024-01-10T15:39:29.390Z,-1.91
2024-01-10T15:41:56.876Z,-1.22
2024-01-10T15:44:24.465Z,-1.81
2024-01-10T15:46:52.116Z,-1.78
2024-01-10T15:49:19.290Z,-1.22
2024-01-10T15:51:46.360Z,-2.03
2024-01-10T15:54:13.892Z,-1.36
2024-01-10T15:56:42.552Z,-2.06
2024-01-10T15:59:10.380Z,-1.49
2024-01-10T16:01:37.509Z,-1.82
2024-01-10T16:04:04.507Z,-1.15
2024-01-10T16:06:35.806Z,-1.72
2024-01-10T16:09:05.001Z,-1.46
2024-01-10T16:11:32.472Z,-1.49
2024-01-10T16:13:59.318Z,-1.28
2024-01-10T16:16:31.143Z,-1.90
2024-01-10T16:18:59.191Z,-2.03
2024-01-10T16:21:26.450Z,-1.23
2024-01-10T16:23:53.236Z,-1.15
2024-01-10T16:26:20.287Z,-1.69
2024-01-10T16:28:48.339Z,-1.57
2024-01-10T16:31:15.357Z,-1.53
2024-01-10T16:33:41.903Z,-0.93
2024-01-10T16:36:08.859Z,-1.52
2024-01-10T16:38:35.638Z,-1.08
2024-01-10T16:41:22.329Z,-1.16
2024-01-10T16:43:49.407Z,-1.36
2024-01-10T16:46:18.750Z,-1.56
2024-01-10T16:48:50.475Z,-1.66
2024-01-10T16:51:21.672Z,-1.15
2024-01-10T16:53:48.496Z,-1.35
2024-01-10T16:56:17.798Z,-1.84
2024-01-10T16:58:44.538Z,-1.24
2024-01-10T17:01:16.642Z,-1.17
2024-01-10T17:03:46.282Z,-1.43
2024-01-10T17:06:25.412Z,-1.13
2024-01-10T17:09:02.480Z,-1.13
2024-01-10T17:11:33.961Z,-1.82
2024-01-10T17:14:00.834Z,-1.89
2024-01-10T17:16:47.180Z,-1.93
2024-01-10T17:19:18.115Z,-1.69
2024-01-10T17:21:53.482Z,-1.28
2024-01-10T17:24:30.788Z,-1.17
2024-01-10T17:26:57.996Z,-1.74
2024-01-10T17:29:28.385Z,-1.36
2024-01-10T17:32:08.191Z,-1.41
2024-01-10T17:34:39.805Z,-1.97
2024-01-10T17:39:51.668Z,-1.48
2024-01-10T17:42:21.821Z,-1.82
2024-01-10T17:44:53.845Z,-1.74
2024-01-10T17:47:22.732Z,-1.84
2024-01-10T17:49:51.731Z,-1.12
2024-01-10T17:52:18.424Z,-1.40
2024-01-10T17:54:47.278Z,-1.11
2024-01-10T17:57:14.046Z,-1.03
2024-01-10T17:59:40.794Z,-1.51
2024-01-10T18:02:07.505Z,-0.96
2024-01-10T18:04:34.367Z,-1.54
2024-01-10T18:07:01.260Z,-1.33
2024-01-10T18:09:27.971Z,-1.22
2024-01-10T18:11:54.848Z,-0.92
2024-01-10T18:14:21.432Z,-1.33
2024-01-10T18:16:48.141Z,-1.51
2024-01-10T18:19:16.088Z,-1.02
2024-01-10T18:21:42.894Z,-1.53
2024-01-10T18:24:09.739Z,-0.91
2024-01-10T18:26:36.479Z,-1.29
2024-01-10T18:29:03.276Z,-0.92
2024-01-10T18:31:32.052Z,-1.09
2024-01-10T18:33:58.771Z,-0.97
2024-01-10T18:36:25.471Z,-1.51
2024-01-10T18:38:53.093Z,-0.91
2024-01-10T18:41:19.930Z,-1.37
2024-01-10T18:43:46.687Z,-1.31
2024-01-10T18:46:13.597Z,-1.37
2024-01-10T18:48:40.595Z,-1.24
2024-01-10T18:51:07.268Z,-0.66
2024-01-10T18:53:35.600Z,-1.21
2024-01-10T18:56:02.395Z,-0.94
2024-01-10T18:58:29.208Z,-1.04
2024-01-10T19:00:55.892Z,-0.73
2024-01-10T19:03:23.114Z,-1.15
2024-01-10T19:05:52.526Z,-1.06
2024-01-10T19:08:19.296Z,-1.22
2024-01-10T19:10:46.418Z,-0.82
2024-01-10T19:13:13.173Z,-0.68
2024-01-10T19:15:39.815Z,-1.16
2024-01-10T19:18:06.603Z,-0.74
2024-01-10T19:20:36.015Z,-0.77
2024-01-10T19:23:05.419Z,-1.62
2024-01-10T19:25:32.587Z,-1.30
2024-01-10T19:27:59.240Z,-1.10
2024-01-10T19:30:26.014Z,-0.78
2024-01-10T19:32:52.838Z,-0.77
2024-01-10T19:35:19.686Z,-1.05
2024-01-10T19:37:46.391Z,-0.54
2024-01-10T19:40:13.332Z,-0.55
2024-01-10T19:42:39.991Z,-0.69
2024-01-10T19:45:07.629Z,-0.59
2024-01-10T19:47:35.603Z,-1.05
2024-01-10T19:50:02.686Z,-0.91
2024-01-10T19:52:29.353Z,-0.34
2024-01-10T19:54:55.959Z,-1.07
2024-01-10T19:57:22.606Z,-0.52
2024-01-10T19:59:49.907Z,-0.88
2024-01-10T20:02:18.960Z,-0.67
2024-01-10T20:04:45.716Z,-0.63
2024-01-10T20:07:12.401Z,-0.73
2024-01-10T20:09:39.052Z,-0.93
2024-01-10T20:12:06.204Z,-0.34
2024-01-10T20:14:38.213Z,-0.82
2024-01-10T20:17:06.326Z,-0.66
2024-01-10T20:19:33.690Z,-0.80
2024-01-10T20:22:00.597Z,-0.73
2024-01-10T20:24:27.289Z,-0.50
2024-01-10T20:26:53.969Z,-0.29
2024-01-10T20:29:20.775Z,-0.25
2024-01-10T20:31:47.407Z,-0.78
2024-01-10T20:34:14.988Z,-0.43
2024-01-10T20:36:42.184Z,-0.80
2024-01-10T20:39:08.882Z,-0.56
2024-01-10T20:41:35.731Z,-0.81
2024-01-10T20:44:02.338Z,-0.20
2024-01-10T20:46:30.133Z,-0.84
2024-01-10T20:48:57.855Z,-0.22
2024-01-10T20:51:24.716Z,-0.88
2024-01-10T20:53:51.436Z,-0.27
2024-01-10T20:56:18.214Z,-0.22
2024-01-10T20:58:44.849Z,-0.52
2024-01-10T21:01:11.962Z,-0.69
2024-01-10T21:03:38.822Z,-0.71
2024-01-10T21:06:06.030Z,-0.62
2024-01-10T21:08:33.259Z,-0.82
2024-01-10T21:11:01.150Z,-0.48
2024-01-10T21:13:28.106Z,-0.85
2024-01-10T21:15:54.844Z,-0.88
2024-01-10T21:18:21.707Z,-0.28
2024-01-10T21:20:48.767Z,-0.73
2024-01-10T21:23:15.698Z,-0.14
2024-01-10T21:25:43.067Z,-0.07
2024-01-10T21:28:10.103Z,-0.59
2024-01-10T21:30:36.953Z,-0.11
2024-01-10T21:33:04.429Z,-0.05
2024-01-10T21:35:31.742Z,-0.58
2024-01-10T21:37:58.505Z,-0.10
2024-01-10T21:40:25.339Z,-0.81
2024-01-10T21:42:52.054Z,0.02
2024-01-10T21:45:19.001Z,-0.15
2024-01-10T21:47:46.109Z,-0.08
2024-01-10T21:50:13.441Z,-0.67
2024-01-10T21:52:40.904Z,-0.30
2024-01-10T21:55:08.371Z,-0.64
2024-01-10T21:57:35.689Z,-0.50
2024-01-10T22:00:02.719Z,-0.01
2024-01-10T22:02:34.211Z,-0.19
2024-01-10T22:05:01.137Z,-0.04
2024-01-10T22:07:28.029Z,-0.04
2024-01-10T22:09:54.601Z,-0.90
2024-01-10T22:12:21.364Z,0.08
2024-01-10T22:14:48.617Z,-0.45
2024-01-10T22:17:15.509Z,0.00
2024-01-10T22:19:42.196Z,0.14
2024-01-10T22:22:08.803Z,-0.31
2024-01-10T22:24:35.657Z,0.05
2024-01-10T22:27:05.042Z,-0.40
2024-01-10T22:29:32.412Z,0.14
2024-01-10T22:31:59.211Z,0.15
2024-01-10T22:34:26.110Z,0.19
2024-01-10T22:36:53.313Z,-0.32
2024-01-10T22:39:20.072Z,0.22
2024-01-10T22:41:47.083Z,0.16
2024-01-10T22:44:17.553Z,0.12
2024-01-10T22:46:45.150Z,-0.79
2024-01-10T22:49:13.002Z,-0.18
2024-01-10T22:51:39.838Z,-0.25
2024-01-10T22:54:07.896Z,-0.11
2024-01-10T22:56:34.879Z,-0.73
2024-01-10T22:59:01.624Z,-0.18
2024-01-10T23:01:28.704Z,-0.44
2024-01-10T23:03:55.489Z,-0.89
2024-01-10T23:06:22.353Z,-0.73
2024-01-10T23:08:48.940Z,-0.66
2024-01-10T23:11:15.806Z,-0.63
2024-01-10T23:13:42.386Z,-0.01
2024-01-10T23:16:09.067Z,-0.10
2024-01-10T23:18:35.889Z,-0.47
2024-01-10T23:21:02.483Z,-0.08
2024-01-10T23:23:29.293Z,-0.62
2024-01-10T23:25:56.173Z,-0.30
2024-01-10T23:28:23.112Z,-0.99
2024-01-10T23:30:49.893Z,-0.76
2024-01-10T23:33:16.680Z,-0.28
2024-01-10T23:35:48.386Z,-0.77
2024-01-10T23:38:16.759Z,-0.75
2024-01-10T23:40:43.769Z,-0.18
2024-01-10T23:43:20.199Z,-0.68
2024-01-10T23:45:53.228Z,-0.13
2024-01-10T23:48:20.051Z,-0.43
2024-01-10T23:50:46.878Z,0.23
2024-01-10T23:53:13.647Z,-0.46
2024-01-10T23:55:40.409Z,-0.68
2024-01-10T23:58:07.258Z,-0.60
